createdAt,value
2019-05-21T09:44:02.324Z,14.70
2019-05-21T09:47:06.713Z,14.70
2019-05-21T09:50:10.752Z,14.50
2019-05-21T09:53:14.204Z,14.60
2019-05-21T09:56:35.617Z,14.70
2019-05-21T09:59:49.688Z,14.70
2019-05-21T10:02:53.155Z,14.80
2019-05-21T10:05:56.722Z,14.80
2019-05-21T10:09:00.182Z,14.80
2019-05-21T10:12:04.086Z,14.90
2019-05-21T10:15:07.858Z,14.90
2019-05-21T10:18:11.353Z,14.90
2019-05-21T10:21:14.876Z,14.80
2019-05-21T10:24:18.365Z,14.90
2019-05-21T10:27:21.988Z,15.00
2019-05-21T10:30:25.529Z,15.10
2019-05-21T10:33:29.005Z,15.10
2019-05-21T10:36:32.606Z,15.00
2019-05-21T10:39:36.158Z,14.90
2019-05-21T10:42:39.812Z,14.70
2019-05-21T10:45:45.427Z,14.70
2019-05-21T10:48:50.707Z,14.70
2019-05-21T10:51:54.428Z,14.70
2019-05-21T10:54:57.911Z,14.70
2019-05-21T10:58:04.524Z,14.60
2019-05-21T11:01:20.298Z,14.50
2019-05-21T11:04:45.882Z,14.50
2019-05-21T11:07:51.175Z,14.50
2019-05-21T11:10:56.675Z,14.60
2019-05-21T11:14:00.315Z,14.70
2019-05-21T11:17:05.968Z,14.60
2019-05-21T11:20:09.696Z,14.50
2019-05-21T11:23:13.253Z,14.50
2019-05-21T11:26:16.709Z,14.60
2019-05-21T11:29:22.245Z,14.70
2019-05-21T11:32:25.705Z,14.70
2019-05-21T11:35:29.322Z,14.70
2019-05-21T11:38:39.994Z,14.80
2019-05-21T11:41:38.160Z,14.90
2019-05-21T11:44:41.635Z,15.00
2019-05-21T11:47:45.264Z,15.00
2019-05-21T11:50:48.816Z,15.00
2019-05-21T11:53:52.316Z,14.90
2019-05-21T11:56:55.768Z,14.90
2019-05-21T11:59:59.322Z,15.00
2019-05-21T12:03:02.883Z,15.00
2019-05-21T12:06:06.555Z,15.00
2019-05-21T12:09:10.122Z,14.90
2019-05-21T12:12:13.701Z,14.90
2019-05-21T12:15:17.354Z,14.70
2019-05-21T12:18:20.881Z,14.70
2019-05-21T12:21:24.440Z,14.70
2019-05-21T12:24:27.992Z,14.70
2019-05-21T12:27:33.114Z,14.70
2019-05-21T12:30:38.703Z,14.80
2019-05-21T12:33:44.477Z,14.80
2019-05-21T12:36:50.022Z,14.80
2019-05-21T12:39:55.400Z,14.70
2019-05-21T12:43:00.529Z,14.70
2019-05-21T12:46:05.726Z,14.70
2019-05-21T12:49:11.038Z,14.70
2019-05-21T12:52:20.828Z,14.60
2019-05-21T12:55:26.634Z,14.60
2019-05-21T12:58:32.302Z,14.60
2019-05-21T13:01:43.351Z,14.60
2019-05-21T13:04:49.339Z,14.60
2019-05-21T13:07:54.050Z,14.60
2019-05-21T13:10:59.699Z,14.70
2019-05-21T13:14:03.402Z,14.70
2019-05-21T13:17:08.737Z,14.80
2019-05-21T13:20:28.524Z,14.80
2019-05-21T13:23:33.872Z,14.80
2019-05-21T13:26:39.367Z,14.80
2019-05-21T13:29:44.827Z,14.70
2019-05-21T13:32:48.848Z,14.80
2019-05-21T13:35:52.364Z,14.70
2019-05-21T13:38:55.841Z,14.70
2019-05-21T13:41:59.379Z,14.70
2019-05-21T13:45:03.010Z,14.60
2019-05-21T13:48:06.636Z,14.60
2019-05-21T13:51:10.092Z,14.60
2019-05-21T13:54:13.593Z,14.70
2019-05-21T13:57:18.963Z,14.70
2019-05-21T14:00:26.188Z,14.70
2019-05-21T14:03:32.070Z,14.70
2019-05-21T14:06:36.070Z,14.60
2019-05-21T14:09:41.764Z,14.60
2019-05-21T14:12:47.119Z,14.60
2019-05-21T14:15:52.172Z,14.60
2019-05-21T14:18:57.428Z,14.60
2019-05-21T14:22:02.979Z,14.60
2019-05-21T14:25:08.751Z,14.60
2019-05-21T14:28:25.645Z,14.60
2019-05-21T14:31:31.088Z,14.50
2019-05-21T14:34:36.895Z,14.50
2019-05-21T14:37:42.306Z,14.40
2019-05-21T14:40:47.036Z,14.40
2019-05-21T14:43:52.482Z,14.20
2019-05-21T14:46:58.066Z,14.20
2019-05-21T14:50:03.621Z,14.10
2019-05-21T14:53:08.767Z,14.20
2019-05-21T14:56:23.113Z,14.20
2019-05-21T14:59:26.781Z,14.20
2019-05-21T16:21:20.338Z,14.30
2019-05-21T16:24:23.791Z,14.30
2019-05-21T16:27:27.269Z,14.20
2019-05-21T16:30:30.720Z,14.20
2019-05-21T16:33:34.285Z,14.10
2019-05-21T16:36:37.822Z,14.10
2019-05-21T16:39:41.443Z,14.10
2019-05-21T16:42:45.018Z,14.10
2019-05-21T16:45:48.487Z,14.10
2019-05-21T16:48:52.143Z,14.10
2019-05-21T16:51:55.660Z,14.10
2019-05-21T16:54:59.219Z,14.00
2019-05-21T16:58:02.741Z,14.00
2019-05-21T17:01:08.043Z,14.00
2019-05-21T17:04:11.575Z,13.90
2019-05-21T17:07:15.066Z,13.90
2019-05-21T17:10:18.588Z,13.90
2019-05-21T17:13:22.121Z,13.90
2019-05-21T17:16:25.625Z,13.80
2019-05-21T17:19:29.228Z,13.90
2019-05-21T17:22:32.830Z,13.90
2019-05-21T17:25:36.372Z,13.80
2019-05-21T17:28:39.899Z,13.80
2019-05-21T17:31:43.457Z,13.80
2019-05-21T17:34:47.117Z,13.80
2019-05-21T17:37:50.689Z,13.80
2019-05-21T17:40:54.190Z,13.80
2019-05-21T17:43:57.721Z,13.70
2019-05-21T17:47:01.229Z,13.70
2019-05-21T17:50:07.834Z,13.70
2019-05-21T17:53:11.335Z,13.70
2019-05-21T17:56:14.902Z,13.70
2019-05-21T17:59:20.505Z,13.70
2019-05-21T18:02:24.260Z,13.70
2019-05-21T18:05:28.156Z,13.70
2019-05-21T18:08:32.361Z,13.70
2019-05-21T18:11:36.264Z,13.70
2019-05-21T18:14:40.358Z,13.60
2019-05-21T18:17:44.146Z,13.60
2019-05-21T18:20:47.670Z,13.70
2019-05-21T18:23:51.370Z,13.70
2019-05-21T18:26:54.871Z,13.70
2019-05-21T18:29:58.472Z,13.80
2019-05-21T18:33:02.422Z,13.70
2019-05-21T18:36:06.054Z,13.70
2019-05-21T18:39:09.888Z,13.70
2019-05-21T18:42:21.670Z,13.70
2019-05-21T18:45:18.641Z,13.70
2019-05-21T18:48:22.210Z,13.70
2019-05-21T18:51:25.664Z,13.70
2019-05-21T18:54:29.157Z,13.70
2019-05-21T18:57:32.649Z,13.70
2019-05-21T19:00:36.277Z,13.70
2019-05-21T19:03:39.743Z,13.70
2019-05-21T19:06:43.475Z,13.70
2019-05-21T19:09:47.005Z,13.70
2019-05-21T19:12:50.704Z,13.70
2019-05-21T19:15:54.277Z,13.70
2019-05-21T19:18:57.750Z,13.70
2019-05-21T19:22:01.321Z,13.60
2019-05-21T19:25:08.857Z,13.60
2019-05-21T19:28:12.418Z,13.60
2019-05-21T19:31:15.945Z,13.60
2019-05-21T19:34:19.588Z,13.60
2019-05-21T19:37:23.050Z,13.70
2019-05-21T19:40:26.538Z,13.60
2019-05-21T19:43:30.076Z,13.60
2019-05-21T19:46:33.653Z,13.60
2019-05-21T19:49:37.103Z,13.70
2019-05-21T19:52:40.629Z,13.70
2019-05-21T19:55:44.428Z,13.70
2019-05-21T19:58:47.936Z,13.70
2019-05-21T20:01:52.421Z,13.70
2019-05-21T20:04:56.533Z,13.70
2019-05-21T20:07:59.998Z,13.70
2019-05-21T20:11:05.741Z,13.70
2019-05-21T20:14:09.464Z,13.70
2019-05-21T20:17:14.866Z,13.70
2019-05-21T20:20:25.956Z,13.70
2019-05-21T20:23:32.624Z,13.70
2019-05-21T20:26:36.153Z,13.70
2019-05-21T20:29:41.361Z,13.70
2019-05-21T20:32:46.464Z,13.70
2019-05-21T20:35:52.424Z,13.70
2019-05-21T20:38:55.953Z,13.60
2019-05-21T20:41:59.708Z,13.60
2019-05-21T20:45:04.076Z,13.60
2019-05-21T20:48:08.945Z,13.60
2019-05-21T20:51:13.340Z,13.60
2019-05-21T20:54:18.543Z,13.50
2019-05-21T20:57:22.165Z,13.60
2019-05-21T21:00:30.435Z,13.60
2019-05-21T21:03:34.232Z,13.60
2019-05-21T21:06:38.086Z,13.50
2019-05-21T21:09:42.562Z,13.60
2019-05-21T21:12:46.191Z,13.50
2019-05-21T21:15:50.028Z,13.50
2019-05-21T21:18:53.976Z,13.50
2019-05-21T21:21:57.445Z,13.50
2019-05-21T21:25:01.420Z,13.50
2019-05-21T21:28:05.337Z,13.50
2019-05-21T21:31:08.942Z,13.40
2019-05-21T21:34:12.697Z,13.50
2019-05-21T21:37:16.325Z,13.50
2019-05-21T21:40:23.873Z,13.40
2019-05-21T21:43:27.333Z,13.40
2019-05-21T21:46:30.838Z,13.40
2019-05-21T21:49:35.152Z,13.50
2019-05-21T21:52:38.712Z,13.40
2019-05-21T21:55:42.337Z,13.50
2019-05-21T21:58:45.828Z,13.40
2019-05-21T22:01:54.278Z,13.40
2019-05-21T22:04:58.749Z,13.40
2019-05-21T22:08:02.408Z,13.30
2019-05-21T22:11:06.413Z,13.40
2019-05-21T22:14:09.969Z,13.30
2019-05-21T22:17:15.268Z,13.30
2019-05-21T22:20:19.698Z,13.30
2019-05-21T22:23:24.165Z,13.30
2019-05-21T22:26:27.765Z,13.30
2019-05-21T22:29:32.088Z,13.20
2019-05-21T22:32:35.649Z,13.30
2019-05-21T22:35:39.177Z,13.30
2019-05-21T22:38:42.662Z,13.30
2019-05-21T22:41:46.243Z,13.20
2019-05-21T22:45:06.352Z,13.30
2019-05-21T22:47:56.333Z,13.20
2019-05-21T22:50:59.792Z,13.20
2019-05-21T22:54:03.281Z,13.30
2019-05-21T22:57:06.832Z,13.20
2019-05-21T23:00:11.519Z,13.20
2019-05-21T23:03:15.154Z,13.20
2019-05-21T23:06:19.156Z,13.20
2019-05-21T23:09:22.784Z,13.20
2019-05-21T23:12:26.295Z,13.20
2019-05-21T23:15:30.197Z,13.10
2019-05-21T23:18:33.856Z,13.10
2019-05-21T23:21:37.345Z,13.10
2019-05-21T23:24:41.204Z,13.10
2019-05-21T23:27:45.077Z,13.10
2019-05-21T23:30:49.626Z,13.10
2019-05-21T23:33:56.194Z,13.00
2019-05-21T23:36:59.684Z,13.00
2019-05-21T23:40:04.095Z,13.00
2019-05-21T23:43:08.448Z,12.90
2019-05-21T23:46:12.745Z,12.90
2019-05-21T23:49:16.241Z,12.90
2019-05-21T23:52:20.441Z,12.90
2019-05-21T23:55:24.364Z,12.80
2019-05-21T23:58:27.826Z,12.80
